createdAt,value
2022-12-01T02:23:22.570Z,102701.59
2022-12-01T02:26:11.692Z,102695.63
2022-12-01T02:29:12.163Z,102696.81
2022-12-01T02:31:58.131Z,102695.22
2022-12-01T02:34:41.017Z,102697.78
2022-12-01T02:37:29.522Z,102701.50
2022-12-01T02:40:06.418Z,102700.91
2022-12-01T02:42:50.024Z,102700.03
2022-12-01T02:45:29.891Z,102700.94
2022-12-01T02:48:00.147Z,102693.91
2022-12-01T02:50:28.828Z,102708.25
2022-12-01T02:52:56.765Z,102704.63
2022-12-01T02:55:24.659Z,102698.41
2022-12-01T02:57:52.777Z,102712.84
2022-12-01T03:00:20.885Z,102703.63
2022-12-01T03:03:02.221Z,102700.66
2022-12-01T03:05:41.571Z,102708.38
2022-12-01T03:08:29.617Z,102698.78
2022-12-01T03:10:58.264Z,102703.09
2022-12-01T03:13:41.162Z,102707.75
2022-12-01T03:16:44.347Z,102702.25
2022-12-01T03:19:17.998Z,102692.53
2022-12-01T03:21:53.528Z,102699.91
2022-12-01T03:24:23.154Z,102692.69
2022-12-01T03:26:57.145Z,102689.19
2022-12-01T03:29:33.979Z,102698.72
2022-12-01T03:32:05.584Z,102692.63
2022-12-01T03:34:58.840Z,102692.63
2022-12-01T03:37:33.353Z,102695.38
2022-12-01T03:40:01.848Z,102690.06
2022-12-01T03:42:38.739Z,102691.06
2022-12-01T03:45:09.558Z,102690.03
2022-12-01T03:47:39.706Z,102693.50
2022-12-01T03:50:08.368Z,102685.72
2022-12-01T03:52:42.362Z,102690.88
2022-12-01T03:55:13.241Z,102681.09
2022-12-01T03:57:56.843Z,102688.25
2022-12-01T04:00:24.932Z,102679.34
2022-12-01T04:02:57.047Z,102672.31
2022-12-01T04:05:25.849Z,102684.72
2022-12-01T04:07:53.875Z,102682.16
2022-12-01T04:10:22.140Z,102686.59
2022-12-01T04:12:50.068Z,102690.19
2022-12-01T04:15:18.351Z,102680.31
2022-12-01T04:17:47.009Z,102675.88
2022-12-01T04:20:15.692Z,102686.59
2022-12-01T04:22:46.255Z,102682.31
2022-12-01T04:25:14.233Z,102692.19
2022-12-01T04:27:42.373Z,102687.59
2022-12-01T04:30:11.250Z,102691.19
2022-12-01T04:32:40.349Z,102673.13
2022-12-01T04:35:09.238Z,102694.84
2022-12-01T04:37:37.517Z,102681.31
2022-12-01T04:40:06.117Z,102686.38
2022-12-01T04:42:34.798Z,102681.34
2022-12-01T04:45:02.809Z,102699.16
2022-12-01T04:47:30.753Z,102694.69
2022-12-01T04:49:58.939Z,102693.81
2022-12-01T04:52:32.047Z,102695.81
2022-12-01T04:55:04.026Z,102691.31
2022-12-01T04:57:35.017Z,102679.47
2022-12-01T05:00:03.817Z,102692.31
2022-12-01T05:02:32.464Z,102681.34
2022-12-01T05:05:00.540Z,102696.53
2022-12-01T05:07:28.680Z,102698.47
2022-12-01T05:09:56.603Z,102703.56
2022-12-01T05:12:24.440Z,102698.53
2022-12-01T05:14:52.276Z,102693.94
2022-12-01T05:17:20.597Z,102699.41
2022-12-01T05:20:06.899Z,102700.28
2022-12-01T05:23:03.977Z,102709.88
2022-12-01T05:25:23.226Z,102705.41
2022-12-01T05:27:51.121Z,102702.66
2022-12-01T05:30:28.246Z,102715.16
2022-12-01T05:32:56.709Z,102723.25
2022-12-01T05:35:24.685Z,102726.06
2022-12-01T05:37:52.610Z,102729.53
2022-12-01T05:40:20.509Z,102728.31
2022-12-01T05:42:48.236Z,102725.50
2022-12-01T05:45:16.144Z,102733.53
2022-12-01T05:47:44.177Z,102728.22
2022-12-01T05:50:11.949Z,102733.78
2022-12-01T05:52:40.113Z,102729.00
2022-12-01T05:55:08.317Z,102731.88
2022-12-01T05:57:37.103Z,102732.59
2022-12-01T06:00:06.240Z,102736.25
2022-12-01T06:02:40.467Z,102739.63
2022-12-01T06:05:09.012Z,102737.72
2022-12-01T06:07:36.977Z,102738.44
2022-12-01T06:10:05.496Z,102733.84
2022-12-01T06:12:33.606Z,102738.44
2022-12-01T06:15:07.103Z,102730.03
2022-12-01T06:17:40.020Z,102737.28
2022-12-01T06:20:08.927Z,102737.13
2022-12-01T06:22:37.240Z,102731.59
2022-12-01T06:25:08.559Z,102728.09
2022-12-01T06:27:38.644Z,102733.09
2022-12-01T06:30:07.714Z,102734.13
2022-12-01T06:32:35.707Z,102731.31
2022-12-01T06:35:03.589Z,102724.75
2022-12-01T06:37:31.763Z,102725.84
2022-12-01T06:40:00.264Z,102733.75
2022-12-01T06:42:34.136Z,102722.03
2022-12-01T06:45:02.384Z,102722.84
2022-12-01T06:47:30.548Z,102729.81
2022-12-01T06:49:58.531Z,102725.28
2022-12-01T06:52:40.605Z,102725.19
2022-12-01T06:55:09.004Z,102717.06
2022-12-01T06:57:36.995Z,102720.38
2022-12-01T07:00:05.897Z,102714.28
2022-12-01T07:02:34.208Z,102706.53
2022-12-01T07:05:02.079Z,102706.97
2022-12-01T07:07:30.360Z,102704.28
2022-12-01T07:09:58.367Z,102693.44
2022-12-01T07:12:26.206Z,102711.25
2022-12-01T07:14:54.630Z,102705.84
2022-12-01T07:17:22.719Z,102704.03
2022-12-01T07:19:50.820Z,102703.09
2022-12-01T07:22:19.046Z,102703.53
2022-12-01T07:24:47.136Z,102707.97
2022-12-01T07:27:15.553Z,102699.16
2022-12-01T07:29:43.581Z,102700.34
2022-12-01T07:32:11.464Z,102692.13
2022-12-01T07:34:39.642Z,102690.88
2022-12-01T07:37:07.628Z,102687.16
2022-12-01T07:39:35.703Z,102683.88
2022-12-01T07:42:03.658Z,102687.47
2022-12-01T07:44:31.612Z,102688.88
2022-12-01T07:46:59.540Z,102691.69
2022-12-01T07:49:27.325Z,102688.34
2022-12-01T07:51:55.491Z,102688.97
2022-12-01T07:54:25.627Z,102698.31
2022-12-01T07:56:54.725Z,102688.47
2022-12-01T07:59:22.571Z,102681.91
2022-12-01T08:01:50.423Z,102673.28
2022-12-01T08:04:18.378Z,102685.50
2022-12-01T08:06:46.651Z,102687.19
2022-12-01T08:09:14.488Z,102683.00
2022-12-01T08:11:42.468Z,102676.16
2022-12-01T08:14:10.465Z,102673.31
2022-12-01T08:16:38.480Z,102684.44
2022-12-01T08:19:06.317Z,102669.88
2022-12-01T08:21:34.819Z,102667.03
2022-12-01T08:24:03.528Z,102678.28
2022-12-01T08:26:31.496Z,102673.56
2022-12-01T08:28:59.479Z,102680.41
2022-12-01T08:31:29.612Z,102669.41
2022-12-01T08:33:57.963Z,102666.34
2022-12-01T08:36:26.429Z,102665.94
2022-12-01T08:38:55.400Z,102676.69
2022-12-01T08:41:24.404Z,102662.06
2022-12-01T08:44:00.985Z,102654.75
2022-12-01T08:46:35.040Z,102649.88
2022-12-01T08:49:04.307Z,102651.78
2022-12-01T08:51:33.624Z,102656.53
2022-12-01T13:09:22.825Z,102557.84
2022-12-01T13:11:58.028Z,102561.00
2022-12-01T13:14:35.314Z,102564.78
2022-12-01T13:17:29.539Z,102560.72
2022-12-01T13:19:57.680Z,102565.69
2022-12-01T13:22:33.320Z,102565.25
2022-12-01T13:25:01.482Z,102558.81
2022-12-01T13:27:37.323Z,102558.97
2022-12-01T13:30:05.994Z,102565.50
2022-12-01T13:32:37.060Z,102565.44
2022-12-01T13:35:26.893Z,102572.38
2022-12-01T13:37:56.069Z,102574.03
2022-12-01T13:40:29.413Z,102574.91
2022-12-01T13:43:08.942Z,102575.59
2022-12-01T13:45:38.876Z,102575.66
2022-12-01T13:48:06.871Z,102572.94
2022-12-01T13:50:43.979Z,102579.97
2022-12-01T13:53:24.189Z,102579.34
2022-12-01T13:56:01.016Z,102584.09
2022-12-01T13:58:34.941Z,102585.69
2022-12-01T14:01:21.550Z,102579.84
2022-12-01T14:03:53.851Z,102583.69
2022-12-01T14:06:39.778Z,102582.59
2022-12-01T14:09:33.211Z,102584.47
2022-12-01T14:12:14.167Z,102584.78
2022-12-01T14:14:55.379Z,102573.88
2022-12-01T14:17:34.588Z,102573.09
2022-12-01T14:20:08.727Z,102565.28
2022-12-01T14:22:44.281Z,102571.69
2022-12-01T14:25:21.199Z,102577.06
2022-12-01T14:27:52.415Z,102571.34
2022-12-01T14:30:46.065Z,102576.34
2022-12-01T14:34:02.033Z,102585.13
2022-12-01T14:36:32.900Z,102569.00
2022-12-01T14:39:02.229Z,102566.16
2022-12-01T14:42:13.323Z,102567.53
2022-12-01T14:44:52.698Z,102562.06
2022-12-01T14:47:25.842Z,102561.97
2022-12-01T14:50:12.382Z,102568.06
2022-12-01T14:52:53.120Z,102569.00
2022-12-01T14:55:25.798Z,102578.84
2022-12-01T14:58:06.421Z,102574.00
2022-12-01T15:00:37.857Z,102578.91
2022-12-01T15:03:10.296Z,102570.13
2022-12-01T15:05:41.731Z,102550.78
2022-12-01T15:08:40.502Z,102560.16
2022-12-01T15:11:10.697Z,102557.31
2022-12-01T15:13:52.779Z,102553.59
2022-12-01T15:16:23.368Z,102554.63
2022-12-01T15:18:51.467Z,102549.41
2022-12-01T15:21:23.557Z,102559.13
2022-12-01T15:23:57.412Z,102554.78
2022-12-01T15:26:29.659Z,102551.00
2022-12-01T15:29:05.225Z,102553.06
2022-12-01T15:31:33.352Z,102555.75
2022-12-01T15:34:01.183Z,102557.72
2022-12-01T15:36:29.263Z,102556.53
2022-12-01T15:39:03.673Z,102553.22
2022-12-01T15:41:34.776Z,102556.69
2022-12-01T15:44:03.826Z,102564.75
2022-12-01T15:46:32.996Z,102554.94
2022-12-01T15:49:32.544Z,102557.63
2022-12-01T15:52:10.707Z,102563.41
2022-12-01T15:54:38.418Z,102556.69
2022-12-01T15:57:06.459Z,102551.31
2022-12-01T15:59:39.728Z,102554.25
2022-12-01T16:02:20.225Z,102548.00
2022-12-01T16:04:48.569Z,102557.66
2022-12-01T16:07:16.582Z,102558.44
2022-12-01T16:09:59.139Z,102562.25
2022-12-01T16:12:28.661Z,102560.50
2022-12-01T16:15:08.649Z,102553.31
2022-12-01T16:17:52.843Z,102558.00
2022-12-01T16:20:31.302Z,102557.38
2022-12-01T16:23:01.936Z,102557.81
2022-12-01T16:25:42.399Z,102561.31
2022-12-01T16:28:37.492Z,102560.50
2022-12-01T16:31:05.822Z,102564.31
2022-12-01T16:33:37.687Z,102568.56
2022-12-01T16:36:05.808Z,102562.56
2022-12-01T16:38:33.550Z,102561.94
2022-12-01T16:41:01.984Z,102562.97
2022-12-01T16:43:30.089Z,102561.16
2022-12-01T16:46:03.554Z,102561.38
2022-12-01T16:48:46.170Z,102559.72
2022-12-01T16:51:17.326Z,102557.13
2022-12-01T16:53:52.059Z,102555.13
2022-12-01T16:56:23.028Z,102550.88
2022-12-01T16:58:50.865Z,102560.03
2022-12-01T17:01:19.118Z,102557.03
2022-12-01T17:03:47.096Z,102548.19
2022-12-01T17:06:17.572Z,102552.78
2022-12-01T17:08:46.856Z,102543.28
2022-12-01T17:11:14.800Z,102541.56
2022-12-01T17:13:43.558Z,102537.91
2022-12-01T17:16:16.760Z,102547.72
2022-12-01T17:18:46.385Z,102546.84
2022-12-01T17:21:14.240Z,102548.84
2022-12-01T17:23:42.179Z,102545.19
2022-12-01T17:26:14.584Z,102546.31
2022-12-01T17:28:42.526Z,102541.09
2022-12-01T17:31:11.554Z,102552.91
2022-12-01T17:33:39.741Z,102544.41
2022-12-01T17:36:10.549Z,102545.97
2022-12-01T17:38:40.087Z,102550.41
2022-12-01T17:41:13.007Z,102544.22
2022-12-01T17:43:41.016Z,102537.28
2022-12-01T17:46:09.613Z,102558.91
2022-12-01T17:48:41.812Z,102540.19
2022-12-01T17:51:11.270Z,102547.63
2022-12-01T17:53:42.871Z,102551.56
2022-12-01T17:56:12.124Z,102545.09
2022-12-01T17:58:40.086Z,102544.19
2022-12-01T18:01:16.349Z,102548.41
2022-12-01T18:03:44.258Z,102542.53
2022-12-01T18:06:12.127Z,102536.47
2022-12-01T18:08:40.992Z,102548.44
2022-12-01T18:11:10.419Z,102548.16
2022-12-01T18:13:40.972Z,102545.75
2022-12-01T18:16:20.169Z,102546.06
2022-12-01T18:18:48.244Z,102550.56
2022-12-01T18:21:18.558Z,102547.09
2022-12-01T18:23:58.309Z,102545.47
2022-12-01T18:26:26.893Z,102548.91
2022-12-01T18:29:14.209Z,102545.34
2022-12-01T18:31:42.170Z,102540.22
2022-12-01T18:34:10.360Z,102548.41
2022-12-01T18:36:40.054Z,102542.38
2022-12-01T18:39:08.553Z,102546.03
2022-12-01T18:41:39.432Z,102544.38
2022-12-01T18:44:07.576Z,102539.00
2022-12-01T18:46:35.373Z,102551.59
2022-12-01T18:49:04.877Z,102549.75
2022-12-01T18:51:34.138Z,102541.59
2022-12-01T18:54:02.482Z,102549.94
2022-12-01T18:56:32.736Z,102552.47
2022-12-01T18:59:05.368Z,102552.69
2022-12-01T19:01:40.159Z,102545.75
2022-12-01T19:04:08.495Z,102542.19
2022-12-01T19:06:38.062Z,102557.03
2022-12-01T19:09:11.980Z,102551.44
2022-12-01T19:11:43.498Z,102561.47
2022-12-01T19:14:13.407Z,102559.00
2022-12-01T19:16:41.185Z,102555.09
2022-12-01T19:19:09.864Z,102557.03
2022-12-01T19:21:37.600Z,102559.59
2022-12-01T19:24:05.663Z,102558.47
2022-12-01T19:26:33.310Z,102564.72
2022-12-01T19:29:01.176Z,102565.97
2022-12-01T19:31:29.023Z,102562.84
2022-12-01T19:33:56.979Z,102560.16
2022-12-01T19:36:26.803Z,102567.19
2022-12-01T19:38:57.469Z,102559.59
2022-12-01T19:41:26.110Z,102560.16
2022-12-01T19:43:54.447Z,102559.06
2022-12-01T19:46:23.668Z,102561.03
2022-12-01T19:49:00.389Z,102570.00
2022-12-01T19:51:30.770Z,102571.19
2022-12-01T19:53:58.605Z,102573.13
2022-12-01T19:56:27.021Z,102575.81
2022-12-01T19:58:54.806Z,102571.47
2022-12-01T20:01:22.803Z,102575.63
2022-12-01T20:03:51.418Z,102560.22
2022-12-01T20:06:27.325Z,102563.78
2022-12-01T20:08:56.283Z,102567.50
2022-12-01T20:11:24.272Z,102569.88
2022-12-01T20:13:53.389Z,102566.03
2022-12-01T20:16:22.696Z,102561.56
2022-12-01T20:18:51.294Z,102574.16
2022-12-01T20:21:24.200Z,102569.09
2022-12-01T20:23:55.825Z,102578.16
2022-12-01T20:26:30.900Z,102576.13
2022-12-01T20:29:04.474Z,102572.69
2022-12-01T20:31:32.595Z,102569.34
2022-12-01T20:34:02.436Z,102567.78
2022-12-01T20:36:30.345Z,102577.41
2022-12-01T20:38:58.046Z,102568.84
2022-12-01T20:41:26.002Z,102568.13
2022-12-01T20:43:53.679Z,102574.94
2022-12-01T20:46:21.993Z,102572.63
2022-12-01T20:48:49.786Z,102571.97
2022-12-01T20:51:18.123Z,102575.78
2022-12-01T20:54:05.429Z,102572.16
2022-12-01T20:56:33.698Z,102574.19
2022-12-01T20:59:01.494Z,102572.53
2022-12-01T21:01:29.403Z,102583.38
2022-12-01T21:03:57.100Z,102576.56
2022-12-01T21:06:25.397Z,102580.28
2022-12-01T21:08:53.053Z,102580.28
2022-12-01T21:11:52.055Z,102580.41
2022-12-01T21:14:26.313Z,102580.84
2022-12-01T21:16:57.193Z,102585.53
2022-12-01T21:19:29.210Z,102582.75
2022-12-01T21:21:56.894Z,102578.84
2022-12-01T21:24:33.519Z,102576.91
2022-12-01T21:27:06.119Z,102567.38
2022-12-01T21:29:41.980Z,102585.53
2022-12-01T21:32:20.624Z,102581.72
2022-12-01T21:34:48.662Z,102580.09
2022-12-01T21:37:22.317Z,102585.78
2022-12-01T21:39:51.200Z,102582.38
2022-12-01T21:42:21.057Z,102576.00
2022-12-01T21:44:49.125Z,102564.56
2022-12-01T21:47:17.539Z,102583.25
2022-12-01T21:49:45.552Z,102567.09
2022-12-01T21:52:23.784Z,102571.91
2022-12-01T21:54:51.767Z,102565.75
2022-12-01T21:57:49.529Z,102565.84
2022-12-01T22:00:31.480Z,102559.47
2022-12-01T22:03:05.197Z,102568.84
2022-12-01T22:06:00.948Z,102563.28
2022-12-01T22:08:38.556Z,102561.66
2022-12-01T22:11:22.003Z,102554.56
2022-12-01T22:14:09.192Z,102569.06
2022-12-01T22:16:50.190Z,102565.19
2022-12-01T22:19:44.738Z,102562.06
2022-12-01T22:22:12.346Z,102559.38
2022-12-01T22:24:47.748Z,102561.94
2022-12-01T22:27:38.708Z,102553.59
2022-12-01T22:30:07.517Z,102564.25
2022-12-01T22:32:53.310Z,102561.38
2022-12-01T22:35:22.674Z,102562.28
2022-12-01T22:38:13.628Z,102559.78
2022-12-01T22:40:47.049Z,102551.19
2022-12-01T22:43:17.918Z,102551.91
2022-12-01T22:45:48.454Z,102552.91
2022-12-01T22:48:27.455Z,102556.78
2022-12-01T22:50:55.464Z,102542.22
2022-12-01T22:53:28.336Z,102550.22
2022-12-01T22:55:56.962Z,102558.41
2022-12-01T22:58:28.262Z,102553.28
2022-12-01T23:00:57.973Z,102563.25
2022-12-01T23:03:26.926Z,102553.53
2022-12-01T23:05:56.734Z,102565.91
2022-12-01T23:08:24.451Z,102564.31
2022-12-01T23:10:55.409Z,102566.19
2022-12-01T23:13:24.141Z,102566.22
2022-12-01T23:15:53.735Z,102562.88
2022-12-01T23:18:23.281Z,102558.47
2022-12-01T23:20:55.287Z,102560.19
2022-12-01T23:23:30.578Z,102552.00
2022-12-01T23:25:58.472Z,102551.00
2022-12-01T23:28:26.174Z,102554.09
2022-12-01T23:30:56.073Z,102549.31
2022-12-01T23:33:32.068Z,102557.34
2022-12-01T23:36:11.977Z,102556.41
2022-12-01T23:38:41.711Z,102549.19
2022-12-01T23:41:29.094Z,102554.53
2022-12-01T23:43:57.340Z,102551.22
2022-12-01T23:46:25.280Z,102557.47
2022-12-01T23:48:54.735Z,102558.41
2022-12-01T23:51:38.705Z,102546.94
2022-12-01T23:54:17.171Z,102559.41
2022-12-01T23:56:45.404Z,102560.53
2022-12-01T23:59:13.408Z,102547.88
